sensor_id;sensor_type;location;lat;lon;timestamp;temperature;humidity
3281;DHT22;1652;51.318;6.202;2022-11-20T00:10:45;2.30;99.90
3281;DHT22;1652;51.318;6.202;2022-11-20T00:13:11;2.40;99.90
3281;DHT22;1652;51.318;6.202;2022-11-20T00:15:38;2.40;99.90
3281;DHT22;1652;51.318;6.202;2022-11-20T00:18:05;2.50;99.90
3281;DHT22;1652;51.318;6.202;2022-11-20T00:20:31;2.50;99.90
3281;DHT22;1652;51.318;6.202;2022-11-20T00:22:58;2.50;99.90
3281;DHT22;1652;51.318;6.202;2022-11-20T00:25:25;2.50;99.90
3281;DHT22;1652;51.318;6.202;2022-11-20T00:27:52;2.30;99.90
3281;DHT22;1652;51.318;6.202;2022-11-20T00:30:19;2.40;99.90
3281;DHT22;1652;51.318;6.202;2022-11-20T00:32:45;2.50;99.90
3281;DHT22;1652;51.318;6.202;2022-11-20T00:37:53;2.40;99.90
3281;DHT22;1652;51.318;6.202;2022-11-20T00:40:19;2.30;99.90
3281;DHT22;1652;51.318;6.202;2022-11-20T00:42:46;2.20;99.90
3281;DHT22;1652;51.318;6.202;2022-11-20T00:45:13;2.10;99.90
3281;DHT22;1652;51.318;6.202;2022-11-20T00:47:40;2.20;99.90
3281;DHT22;1652;51.318;6.202;2022-11-20T00:50:07;2.40;99.90
3281;DHT22;1652;51.318;6.202;2022-11-20T00:52:34;2.30;99.90
3281;DHT22;1652;51.318;6.202;2022-11-20T00:55:00;2.30;99.90
3281;DHT22;1652;51.318;6.202;2022-11-20T00:57:27;2.40;99.90
3281;DHT22;1652;51.318;6.202;2022-11-20T00:59:54;2.30;99.90
3281;DHT22;1652;51.318;6.202;2022-11-20T01:02:21;2.30;99.90
3281;DHT22;1652;51.318;6.202;2022-11-20T01:04:47;2.20;99.90
3281;DHT22;1652;51.318;6.202;2022-11-20T01:07:14;2.10;99.90
3281;DHT22;1652;51.318;6.202;2022-11-20T01:09:41;2.20;99.90
3281;DHT22;1652;51.318;6.202;2022-11-20T01:12:08;2.30;99.90
3281;DHT22;1652;51.318;6.202;2022-11-20T01:14:34;2.20;99.90
3281;DHT22;1652;51.318;6.202;2022-11-20T01:17:01;2.00;99.90
3281;DHT22;1652;51.318;6.202;2022-11-20T01:19:28;1.80;99.90
3281;DHT22;1652;51.318;6.202;2022-11-20T01:21:55;1.70;99.90
3281;DHT22;1652;51.318;6.202;2022-11-20T01:24:22;1.60;99.90
3281;DHT22;1652;51.318;6.202;2022-11-20T01:26:50;1.40;99.90
3281;DHT22;1652;51.318;6.202;2022-11-20T01:29:22;1.30;99.90
3281;DHT22;1652;51.318;6.202;2022-11-20T01:31:50;1.30;99.90
3281;DHT22;1652;51.318;6.202;2022-11-20T01:34:19;1.30;99.90
3281;DHT22;1652;51.318;6.202;2022-11-20T01:36:47;1.20;99.90
3281;DHT22;1652;51.318;6.202;2022-11-20T01:39:25;1.20;99.90
3281;DHT22;1652;51.318;6.202;2022-11-20T01:41:54;1.10;99.90
3281;DHT22;1652;51.318;6.202;2022-11-20T01:44:53;1.10;99.90
3281;DHT22;1652;51.318;6.202;2022-11-20T01:47:42;1.00;99.90
3281;DHT22;1652;51.318;6.202;2022-11-20T01:53:08;0.60;99.90
3281;DHT22;1652;51.318;6.202;2022-11-20T01:55:41;0.60;99.90
3281;DHT22;1652;51.318;6.202;2022-11-20T01:58:10;0.60;99.90
3281;DHT22;1652;51.318;6.202;2022-11-20T02:00:37;0.60;99.90
3281;DHT22;1652;51.318;6.202;2022-11-20T02:03:07;0.50;99.90
3281;DHT22;1652;51.318;6.202;2022-11-20T02:05:46;0.50;99.90
3281;DHT22;1652;51.318;6.202;2022-11-20T02:08:15;0.50;99.90
3281;DHT22;1652;51.318;6.202;2022-11-20T02:10:43;0.40;99.90
3281;DHT22;1652;51.318;6.202;2022-11-20T02:13:10;0.40;99.90
3281;DHT22;1652;51.318;6.202;2022-11-20T02:15:56;0.40;99.90
3281;DHT22;1652;51.318;6.202;2022-11-20T02:18:24;0.30;99.90
3281;DHT22;1652;51.318;6.202;2022-11-20T02:20:55;0.20;99.90
3281;DHT22;1652;51.318;6.202;2022-11-20T02:23:36;0.40;99.90
3281;DHT22;1652;51.318;6.202;2022-11-20T02:26:07;0.50;99.90
3281;DHT22;1652;51.318;6.202;2022-11-20T02:28:35;0.50;99.90
3281;DHT22;1652;51.318;6.202;2022-11-20T02:31:03;0.40;99.90
3281;DHT22;1652;51.318;6.202;2022-11-20T02:33:30;0.30;99.90
3281;DHT22;1652;51.318;6.202;2022-11-20T02:35:56;0.30;99.90
3281;DHT22;1652;51.318;6.202;2022-11-20T02:38:23;0.30;99.90
3281;DHT22;1652;51.318;6.202;2022-11-20T02:40:50;0.20;99.90
3281;DHT22;1652;51.318;6.202;2022-11-20T02:43:21;0.20;99.90
3281;DHT22;1652;51.318;6.202;2022-11-20T02:45:48;0.20;99.90
3281;DHT22;1652;51.318;6.202;2022-11-20T02:48:15;0.10;99.90
3281;DHT22;1652;51.318;6.202;2022-11-20T02:50:41;0.00;99.90
3281;DHT22;1652;51.318;6.202;2022-11-20T02:53:09;0.10;99.90
3281;DHT22;1652;51.318;6.202;2022-11-20T02:55:36;0.00;99.90
3281;DHT22;1652;51.318;6.202;2022-11-20T02:58:02;0.10;99.90
3281;DHT22;1652;51.318;6.202;2022-11-20T03:00:29;0.00;99.90
3281;DHT22;1652;51.318;6.202;2022-11-20T03:02:57;0.00;99.90
3281;DHT22;1652;51.318;6.202;2022-11-20T03:05:23;0.00;99.90
3281;DHT22;1652;51.318;6.202;2022-11-20T03:07:50;0.10;99.90
3281;DHT22;1652;51.318;6.202;2022-11-20T03:10:17;0.20;99.90
3281;DHT22;1652;51.318;6.202;2022-11-20T03:12:44;0.40;99.90
3281;DHT22;1652;51.318;6.202;2022-11-20T03:15:11;0.50;99.90
3281;DHT22;1652;51.318;6.202;2022-11-20T03:17:38;0.60;99.90
3281;DHT22;1652;51.318;6.202;2022-11-20T03:20:06;0.70;99.90
3281;DHT22;1652;51.318;6.202;2022-11-20T03:22:32;0.70;99.90
3281;DHT22;1652;51.318;6.202;2022-11-20T03:24:59;0.80;99.90
3281;DHT22;1652;51.318;6.202;2022-11-20T03:27:26;0.90;99.90
3281;DHT22;1652;51.318;6.202;2022-11-20T03:29:53;1.00;99.90
3281;DHT22;1652;51.318;6.202;2022-11-20T03:32:19;1.00;99.90
3281;DHT22;1652;51.318;6.202;2022-11-20T03:34:46;1.00;99.90
3281;DHT22;1652;51.318;6.202;2022-11-20T03:37:13;1.00;99.90
3281;DHT22;1652;51.318;6.202;2022-11-20T03:39:40;1.00;99.90
3281;DHT22;1652;51.318;6.202;2022-11-20T03:42:06;1.10;99.90
3281;DHT22;1652;51.318;6.202;2022-11-20T03:44:54;1.20;99.90
3281;DHT22;1652;51.318;6.202;2022-11-20T03:47:21;1.20;99.90
3281;DHT22;1652;51.318;6.202;2022-11-20T03:52:29;1.20;99.90
3281;DHT22;1652;51.318;6.202;2022-11-20T03:54:55;1.20;99.90
3281;DHT22;1652;51.318;6.202;2022-11-20T03:57:22;1.20;99.90
3281;DHT22;1652;51.318;6.202;2022-11-20T03:59:49;1.20;99.90
3281;DHT22;1652;51.318;6.202;2022-11-20T04:02:15;1.10;99.90
3281;DHT22;1652;51.318;6.202;2022-11-20T04:04:42;1.20;99.90
3281;DHT22;1652;51.318;6.202;2022-11-20T04:07:09;1.20;99.90
3281;DHT22;1652;51.318;6.202;2022-11-20T04:09:36;1.20;99.90
3281;DHT22;1652;51.318;6.202;2022-11-20T04:12:03;1.10;99.90
3281;DHT22;1652;51.318;6.202;2022-11-20T04:14:30;1.20;99.90
3281;DHT22;1652;51.318;6.202;2022-11-20T04:16:56;1.10;99.90
3281;DHT22;1652;51.318;6.202;2022-11-20T04:19:23;1.20;99.90
3281;DHT22;1652;51.318;6.202;2022-11-20T04:21:50;1.10;99.90
3281;DHT22;1652;51.318;6.202;2022-11-20T04:24:16;1.20;99.90
3281;DHT22;1652;51.318;6.202;2022-11-20T04:26:43;1.20;99.90
3281;DHT22;1652;51.318;6.202;2022-11-20T04:29:11;1.10;99.90
3281;DHT22;1652;51.318;6.202;2022-11-20T04:31:38;1.10;99.90
3281;DHT22;1652;51.318;6.202;2022-11-20T04:34:06;1.20;99.90
3281;DHT22;1652;51.318;6.202;2022-11-20T04:36:34;1.40;99.90
3281;DHT22;1652;51.318;6.202;2022-11-20T04:39:04;1.40;99.90
3281;DHT22;1652;51.318;6.202;2022-11-20T04:41:34;1.50;99.90
3281;DHT22;1652;51.318;6.202;2022-11-20T04:44:03;1.50;99.90
3281;DHT22;1652;51.318;6.202;2022-11-20T04:46:33;1.50;99.90
3281;DHT22;1652;51.318;6.202;2022-11-20T04:49:00;1.40;99.90
3281;DHT22;1652;51.318;6.202;2022-11-20T04:51:27;1.40;99.90
3281;DHT22;1652;51.318;6.202;2022-11-20T04:53:54;1.50;99.90
3281;DHT22;1652;51.318;6.202;2022-11-20T04:56:21;1.50;99.90
3281;DHT22;1652;51.318;6.202;2022-11-20T04:58:48;1.40;99.90
3281;DHT22;1652;51.318;6.202;2022-11-20T05:01:22;1.50;99.90
3281;DHT22;1652;51.318;6.202;2022-11-20T05:03:50;1.50;99.90
3281;DHT22;1652;51.318;6.202;2022-11-20T05:06:19;1.50;99.90
3281;DHT22;1652;51.318;6.202;2022-11-20T05:08:46;1.70;99.90
3281;DHT22;1652;51.318;6.202;2022-11-20T05:11:18;1.80;99.90
3281;DHT22;1652;51.318;6.202;2022-11-20T05:13:46;1.90;99.90
3281;DHT22;1652;51.318;6.202;2022-11-20T05:16:18;1.70;99.90
3281;DHT22;1652;51.318;6.202;2022-11-20T05:18:46;1.80;99.90
3281;DHT22;1652;51.318;6.202;2022-11-20T05:21:13;1.70;99.90
3281;DHT22;1652;51.318;6.202;2022-11-20T05:23:40;1.70;99.90
3281;DHT22;1652;51.318;6.202;2022-11-20T05:26:12;1.70;99.90
3281;DHT22;1652;51.318;6.202;2022-11-20T05:28:39;1.70;99.90
3281;DHT22;1652;51.318;6.202;2022-11-20T05:31:07;1.70;99.90
3281;DHT22;1652;51.318;6.202;2022-11-20T05:33:35;1.80;99.90
3281;DHT22;1652;51.318;6.202;2022-11-20T05:36:05;1.80;99.90
3281;DHT22;1652;51.318;6.202;2022-11-20T05:38:32;1.80;99.90
3281;DHT22;1652;51.318;6.202;2022-11-20T05:41:08;1.80;99.90
3281;DHT22;1652;51.318;6.202;2022-11-20T05:43:37;1.90;99.90
3281;DHT22;1652;51.318;6.202;2022-11-20T05:46:05;1.90;99.90
3281;DHT22;1652;51.318;6.202;2022-11-20T05:48:33;1.80;99.90
3281;DHT22;1652;51.318;6.202;2022-11-20T05:51:01;1.80;99.90
3281;DHT22;1652;51.318;6.202;2022-11-20T05:53:29;1.80;99.90
3281;DHT22;1652;51.318;6.202;2022-11-20T05:56:00;1.70;99.90
3281;DHT22;1652;51.318;6.202;2022-11-20T05:58:28;1.70;99.90
3281;DHT22;1652;51.318;6.202;2022-11-20T06:01:02;1.90;99.90
3281;DHT22;1652;51.318;6.202;2022-11-20T06:03:29;2.00;99.90
3281;DHT22;1652;51.318;6.202;2022-11-20T06:05:56;1.90;99.90
3281;DHT22;1652;51.318;6.202;2022-11-20T06:08:22;1.70;99.90
3281;DHT22;1652;51.318;6.202;2022-11-20T06:10:49;1.50;99.90
3281;DHT22;1652;51.318;6.202;2022-11-20T06:13:16;1.50;99.90
3281;DHT22;1652;51.318;6.202;2022-11-20T06:15:51;1.40;99.90
3281;DHT22;1652;51.318;6.202;2022-11-20T06:18:19;1.40;99.90
3281;DHT22;1652;51.318;6.202;2022-11-20T06:20:46;1.50;99.90
3281;DHT22;1652;51.318;6.202;2022-11-20T06:23:13;1.70;99.90
3281;DHT22;1652;51.318;6.202;2022-11-20T06:25:41;1.60;99.90
3281;DHT22;1652;51.318;6.202;2022-11-20T06:28:09;1.70;99.90
3281;DHT22;1652;51.318;6.202;2022-11-20T06:30:35;1.60;99.90
3281;DHT22;1652;51.318;6.202;2022-11-20T06:33:02;1.50;99.90
3281;DHT22;1652;51.318;6.202;2022-11-20T06:35:29;1.50;99.90
3281;DHT22;1652;51.318;6.202;2022-11-20T06:37:56;1.60;99.90
3281;DHT22;1652;51.318;6.202;2022-11-20T06:40:23;1.70;99.90
3281;DHT22;1652;51.318;6.202;2022-11-20T06:42:49;1.70;99.90
3281;DHT22;1652;51.318;6.202;2022-11-20T06:45:16;1.70;99.90
3281;DHT22;1652;51.318;6.202;2022-11-20T06:47:43;1.60;99.90
3281;DHT22;1652;51.318;6.202;2022-11-20T06:50:10;1.70;99.90
3281;DHT22;1652;51.318;6.202;2022-11-20T06:52:36;1.80;99.90
3281;DHT22;1652;51.318;6.202;2022-11-20T06:55:09;1.90;99.90
3281;DHT22;1652;51.318;6.202;2022-11-20T06:57:35;2.00;99.90
3281;DHT22;1652;51.318;6.202;2022-11-20T07:00:02;2.00;99.90
3281;DHT22;1652;51.318;6.202;2022-11-20T07:02:29;2.00;99.90
3281;DHT22;1652;51.318;6.202;2022-11-20T07:04:56;2.00;99.90
3281;DHT22;1652;51.318;6.202;2022-11-20T07:07:23;2.00;99.90
3281;DHT22;1652;51.318;6.202;2022-11-20T07:09:50;2.20;99.90
3281;DHT22;1652;51.318;6.202;2022-11-20T07:12:16;2.10;99.90
3281;DHT22;1652;51.318;6.202;2022-11-20T07:14:43;2.20;99.90
3281;DHT22;1652;51.318;6.202;2022-11-20T07:17:10;2.20;99.90
3281;DHT22;1652;51.318;6.202;2022-11-20T07:19:36;2.10;99.90
3281;DHT22;1652;51.318;6.202;2022-11-20T07:22:03;2.10;99.90
3281;DHT22;1652;51.318;6.202;2022-11-20T07:24:30;2.10;99.90
3281;DHT22;1652;51.318;6.202;2022-11-20T07:26:56;2.20;99.90
3281;DHT22;1652;51.318;6.202;2022-11-20T07:29:23;2.10;99.90
3281;DHT22;1652;51.318;6.202;2022-11-20T07:31:50;2.20;99.90
3281;DHT22;1652;51.318;6.202;2022-11-20T07:34:17;2.20;99.90
3281;DHT22;1652;51.318;6.202;2022-11-20T07:36:43;2.20;99.90
3281;DHT22;1652;51.318;6.202;2022-11-20T07:39:10;2.30;99.90
3281;DHT22;1652;51.318;6.202;2022-11-20T07:41:37;2.30;99.90
3281;DHT22;1652;51.318;6.202;2022-11-20T07:44:04;2.30;99.90
3281;DHT22;1652;51.318;6.202;2022-11-20T07:46:31;2.30;99.90
3281;DHT22;1652;51.318;6.202;2022-11-20T07:48:57;2.20;99.90
3281;DHT22;1652;51.318;6.202;2022-11-20T07:51:24;2.30;99.90
3281;DHT22;1652;51.318;6.202;2022-11-20T07:53:52;2.40;99.90
3281;DHT22;1652;51.318;6.202;2022-11-20T07:56:19;2.40;99.90
3281;DHT22;1652;51.318;6.202;2022-11-20T07:58:46;2.40;99.90
3281;DHT22;1652;51.318;6.202;2022-11-20T08:01:13;2.40;99.90
3281;DHT22;1652;51.318;6.202;2022-11-20T08:03:39;2.50;99.90
3281;DHT22;1652;51.318;6.202;2022-11-20T08:06:07;2.60;99.90
3281;DHT22;1652;51.318;6.202;2022-11-20T08:08:33;2.60;99.90
3281;DHT22;1652;51.318;6.202;2022-11-20T08:11:07;2.60;99.90
3281;DHT22;1652;51.318;6.202;2022-11-20T08:13:52;2.80;99.90
3281;DHT22;1652;51.318;6.202;2022-11-20T08:16:42;2.80;99.90
3281;DHT22;1652;51.318;6.202;2022-11-20T08:19:10;3.00;99.90
3281;DHT22;1652;51.318;6.202;2022-11-20T08:21:37;3.00;99.90
3281;DHT22;1652;51.318;6.202;2022-11-20T08:24:04;2.90;99.90
3281;DHT22;1652;51.318;6.202;2022-11-20T08:26:31;3.10;99.90
3281;DHT22;1652;51.318;6.202;2022-11-20T08:28:58;3.10;99.90
3281;DHT22;1652;51.318;6.202;2022-11-20T08:31:26;3.20;99.90
3281;DHT22;1652;51.318;6.202;2022-11-20T08:33:53;3.20;99.90
3281;DHT22;1652;51.318;6.202;2022-11-20T08:36:21;3.30;99.90
3281;DHT22;1652;51.318;6.202;2022-11-20T08:38:54;3.30;99.90
3281;DHT22;1652;51.318;6.202;2022-11-20T08:41:21;3.30;99.90
3281;DHT22;1652;51.318;6.202;2022-11-20T08:44:04;3.30;99.90
3281;DHT22;1652;51.318;6.202;2022-11-20T08:46:38;3.30;99.90
3281;DHT22;1652;51.318;6.202;2022-11-20T08:49:10;3.30;99.90
3281;DHT22;1652;51.318;6.202;2022-11-20T08:51:38;3.40;99.90
3281;DHT22;1652;51.318;6.202;2022-11-20T08:54:05;3.50;99.90
3281;DHT22;1652;51.318;6.202;2022-11-20T08:56:32;3.50;99.90
3281;DHT22;1652;51.318;6.202;2022-11-20T08:59:00;3.70;99.90
3281;DHT22;1652;51.318;6.202;2022-11-20T09:01:46;3.70;99.90
3281;DHT22;1652;51.318;6.202;2022-11-20T09:04:13;3.70;99.90
3281;DHT22;1652;51.318;6.202;2022-11-20T09:06:41;3.80;99.90
3281;DHT22;1652;51.318;6.202;2022-11-20T09:11:43;4.00;99.90
3281;DHT22;1652;51.318;6.202;2022-11-20T09:14:10;4.10;99.90
3281;DHT22;1652;51.318;6.202;2022-11-20T09:16:37;4.10;99.90
3281;DHT22;1652;51.318;6.202;2022-11-20T09:19:04;4.20;99.90
3281;DHT22;1652;51.318;6.202;2022-11-20T09:21:51;4.10;99.90
3281;DHT22;1652;51.318;6.202;2022-11-20T09:24:24;4.20;99.90
3281;DHT22;1652;51.318;6.202;2022-11-20T09:26:51;4.30;99.90
3281;DHT22;1652;51.318;6.202;2022-11-20T09:29:18;4.30;99.90
3281;DHT22;1652;51.318;6.202;2022-11-20T09:31:45;4.40;99.90
3281;DHT22;1652;51.318;6.202;2022-11-20T09:34:12;4.30;99.90
3281;DHT22;1652;51.318;6.202;2022-11-20T09:36:38;4.20;99.90
3281;DHT22;1652;51.318;6.202;2022-11-20T09:39:05;4.20;99.90
3281;DHT22;1652;51.318;6.202;2022-11-20T09:42:10;4.20;99.90
3281;DHT22;1652;51.318;6.202;2022-11-20T09:48:03;4.10;99.90
3281;DHT22;1652;51.318;6.202;2022-11-20T09:50:56;4.10;99.90
3281;DHT22;1652;51.318;6.202;2022-11-20T09:53:35;4.10;99.90
3281;DHT22;1652;51.318;6.202;2022-11-20T09:56:04;4.10;99.90
3281;DHT22;1652;51.318;6.202;2022-11-20T09:58:38;4.10;99.90
3281;DHT22;1652;51.318;6.202;2022-11-20T10:01:20;4.10;99.90
3281;DHT22;1652;51.318;6.202;2022-11-20T10:04:21;4.10;99.90
3281;DHT22;1652;51.318;6.202;2022-11-20T10:09:54;4.20;99.90
3281;DHT22;1652;51.318;6.202;2022-11-20T10:15:12;4.30;99.90
3281;DHT22;1652;51.318;6.202;2022-11-20T10:17:54;4.30;99.90
3281;DHT22;1652;51.318;6.202;2022-11-20T10:26:17;4.40;99.90
3281;DHT22;1652;51.318;6.202;2022-11-20T10:28:56;4.60;99.90
3281;DHT22;1652;51.318;6.202;2022-11-20T10:31:45;4.60;99.90
3281;DHT22;1652;51.318;6.202;2022-11-20T10:34:33;4.60;99.90
3281;DHT22;1652;51.318;6.202;2022-11-20T10:37:15;4.60;99.90
3281;DHT22;1652;51.318;6.202;2022-11-20T10:40:11;4.70;99.90
3281;DHT22;1652;51.318;6.202;2022-11-20T10:50:37;4.70;99.90
3281;DHT22;1652;51.318;6.202;2022-11-20T10:53:40;4.80;99.90
3281;DHT22;1652;51.318;6.202;2022-11-20T11:01:57;5.10;99.90
3281;DHT22;1652;51.318;6.202;2022-11-20T11:04:46;5.10;99.90
3281;DHT22;1652;51.318;6.202;2022-11-20T11:07:27;5.10;99.90
3281;DHT22;1652;51.318;6.202;2022-11-20T11:09:55;5.10;99.90
3281;DHT22;1652;51.318;6.202;2022-11-20T11:12:25;5.40;99.90
3281;DHT22;1652;51.318;6.202;2022-11-20T11:14:54;5.40;99.90
3281;DHT22;1652;51.318;6.202;2022-11-20T11:17:26;5.50;99.90
3281;DHT22;1652;51.318;6.202;2022-11-20T11:20:15;5.50;99.90
3281;DHT22;1652;51.318;6.202;2022-11-20T11:22:53;5.40;99.90
3281;DHT22;1652;51.318;6.202;2022-11-20T11:25:23;5.50;99.90
3281;DHT22;1652;51.318;6.202;2022-11-20T11:27:51;5.40;99.90
3281;DHT22;1652;51.318;6.202;2022-11-20T11:30:19;5.50;99.90
3281;DHT22;1652;51.318;6.202;2022-11-20T11:32:46;5.50;99.90
3281;DHT22;1652;51.318;6.202;2022-11-20T11:35:25;5.40;99.90
3281;DHT22;1652;51.318;6.202;2022-11-20T11:38:01;5.40;99.90
3281;DHT22;1652;51.318;6.202;2022-11-20T11:40:31;5.50;99.90
3281;DHT22;1652;51.318;6.202;2022-11-20T11:43:01;5.50;99.90
3281;DHT22;1652;51.318;6.202;2022-11-20T11:45:28;5.60;99.90
3281;DHT22;1652;51.318;6.202;2022-11-20T11:48:00;5.70;99.90
3281;DHT22;1652;51.318;6.202;2022-11-20T11:58:46;5.60;99.90
3281;DHT22;1652;51.318;6.202;2022-11-20T12:01:46;5.60;99.90
3281;DHT22;1652;51.318;6.202;2022-11-20T12:04:40;5.60;99.90
3281;DHT22;1652;51.318;6.202;2022-11-20T12:10:28;5.60;99.90
3281;DHT22;1652;51.318;6.202;2022-11-20T12:13:17;5.50;99.90
3281;DHT22;1652;51.318;6.202;2022-11-20T12:15:47;5.50;99.90
3281;DHT22;1652;51.318;6.202;2022-11-20T12:18:18;5.50;99.90
3281;DHT22;1652;51.318;6.202;2022-11-20T12:24:21;5.60;99.90
3281;DHT22;1652;51.318;6.202;2022-11-20T12:30:07;5.60;99.90
3281;DHT22;1652;51.318;6.202;2022-11-20T12:32:56;5.70;99.90
3281;DHT22;1652;51.318;6.202;2022-11-20T12:44:54;5.80;99.90
3281;DHT22;1652;51.318;6.202;2022-11-20T12:50:52;5.90;99.90
3281;DHT22;1652;51.318;6.202;2022-11-20T12:59:39;5.90;99.90
3281;DHT22;1652;51.318;6.202;2022-11-20T13:02:41;6.00;99.90
3281;DHT22;1652;51.318;6.202;2022-11-20T13:05:44;5.90;99.90
3281;DHT22;1652;51.318;6.202;2022-11-20T13:08:24;5.90;99.90
3281;DHT22;1652;51.318;6.202;2022-11-20T13:13:51;6.00;99.90
3281;DHT22;1652;51.318;6.202;2022-11-20T13:19:12;5.90;99.90
3281;DHT22;1652;51.318;6.202;2022-11-20T13:21:42;5.90;99.90
3281;DHT22;1652;51.318;6.202;2022-11-20T13:27:16;5.90;99.90
3281;DHT22;1652;51.318;6.202;2022-11-20T13:29:46;6.00;99.90
3281;DHT22;1652;51.318;6.202;2022-11-20T13:32:16;6.00;99.90
3281;DHT22;1652;51.318;6.202;2022-11-20T13:34:54;6.10;99.90
3281;DHT22;1652;51.318;6.202;2022-11-20T13:37:33;6.10;99.90
3281;DHT22;1652;51.318;6.202;2022-11-20T13:45:20;6.10;99.90
3281;DHT22;1652;51.318;6.202;2022-11-20T13:47:49;6.00;99.90
3281;DHT22;1652;51.318;6.202;2022-11-20T13:50:16;6.00;99.90
3281;DHT22;1652;51.318;6.202;2022-11-20T13:53:00;6.10;99.90
3281;DHT22;1652;51.318;6.202;2022-11-20T13:55:54;6.00;99.90
3281;DHT22;1652;51.318;6.202;2022-11-20T14:01:24;6.00;99.90
3281;DHT22;1652;51.318;6.202;2022-11-20T14:03:52;6.00;99.90
3281;DHT22;1652;51.318;6.202;2022-11-20T14:06:42;6.10;99.90
3281;DHT22;1652;51.318;6.202;2022-11-20T14:09:30;6.10;99.90
3281;DHT22;1652;51.318;6.202;2022-11-20T14:11:57;6.20;99.90
3281;DHT22;1652;51.318;6.202;2022-11-20T14:14:27;6.20;99.90
3281;DHT22;1652;51.318;6.202;2022-11-20T14:19:45;6.20;99.90
3281;DHT22;1652;51.318;6.202;2022-11-20T14:22:21;6.20;99.90
3281;DHT22;1652;51.318;6.202;2022-11-20T14:24:51;6.20;99.90
3281;DHT22;1652;51.318;6.202;2022-11-20T14:27:26;6.20;99.90
3281;DHT22;1652;51.318;6.202;2022-11-20T14:29:53;6.10;99.90
3281;DHT22;1652;51.318;6.202;2022-11-20T14:32:26;6.10;99.90
3281;DHT22;1652;51.318;6.202;2022-11-20T14:34:54;6.10;99.90
3281;DHT22;1652;51.318;6.202;2022-11-20T14:37:26;6.00;99.90
3281;DHT22;1652;51.318;6.202;2022-11-20T14:39:55;6.00;99.90
3281;DHT22;1652;51.318;6.202;2022-11-20T14:42:24;6.00;99.90
3281;DHT22;1652;51.318;6.202;2022-11-20T14:44:55;6.00;99.90
3281;DHT22;1652;51.318;6.202;2022-11-20T14:47:27;6.00;99.90
3281;DHT22;1652;51.318;6.202;2022-11-20T14:49:57;6.00;99.90
3281;DHT22;1652;51.318;6.202;2022-11-20T14:52:26;6.00;99.90
3281;DHT22;1652;51.318;6.202;2022-11-20T14:54:55;6.00;99.90
3281;DHT22;1652;51.318;6.202;2022-11-20T14:57:40;6.00;99.90
3281;DHT22;1652;51.318;6.202;2022-11-20T15:02:45;5.90;99.90
3281;DHT22;1652;51.318;6.202;2022-11-20T15:05:12;5.90;99.90
3281;DHT22;1652;51.318;6.202;2022-11-20T15:07:42;5.80;99.90
3281;DHT22;1652;51.318;6.202;2022-11-20T15:10:23;5.80;99.90
3281;DHT22;1652;51.318;6.202;2022-11-20T15:13:02;5.70;99.90
3281;DHT22;1652;51.318;6.202;2022-11-20T15:18:21;5.70;99.90
3281;DHT22;1652;51.318;6.202;2022-11-20T15:20:50;5.70;99.90
3281;DHT22;1652;51.318;6.202;2022-11-20T15:23:18;5.70;99.90
3281;DHT22;1652;51.318;6.202;2022-11-20T15:25:46;5.70;99.90
3281;DHT22;1652;51.318;6.202;2022-11-20T15:28:24;5.70;99.90
3281;DHT22;1652;51.318;6.202;2022-11-20T15:30:53;5.70;99.90
3281;DHT22;1652;51.318;6.202;2022-11-20T15:33:22;5.70;99.90
3281;DHT22;1652;51.318;6.202;2022-11-20T15:35:49;5.70;99.90
3281;DHT22;1652;51.318;6.202;2022-11-20T15:38:16;5.70;99.90
3281;DHT22;1652;51.318;6.202;2022-11-20T15:40:42;5.70;99.90
3281;DHT22;1652;51.318;6.202;2022-11-20T15:43:09;5.70;99.90
3281;DHT22;1652;51.318;6.202;2022-11-20T15:46:00;5.70;99.90
3281;DHT22;1652;51.318;6.202;2022-11-20T15:48:33;5.70;99.90
3281;DHT22;1652;51.318;6.202;2022-11-20T15:51:07;5.60;99.90
3281;DHT22;1652;51.318;6.202;2022-11-20T15:53:41;5.70;99.90
3281;DHT22;1652;51.318;6.202;2022-11-20T15:56:11;5.70;99.90
3281;DHT22;1652;51.318;6.202;2022-11-20T15:58:39;5.70;99.90
3281;DHT22;1652;51.318;6.202;2022-11-20T16:01:09;5.80;99.90
3281;DHT22;1652;51.318;6.202;2022-11-20T16:03:37;5.80;99.90
3281;DHT22;1652;51.318;6.202;2022-11-20T16:06:04;5.70;99.90
3281;DHT22;1652;51.318;6.202;2022-11-20T16:08:31;5.70;99.90
3281;DHT22;1652;51.318;6.202;2022-11-20T16:10:58;5.70;99.90
3281;DHT22;1652;51.318;6.202;2022-11-20T16:13:24;5.70;99.90
3281;DHT22;1652;51.318;6.202;2022-11-20T16:16:22;5.70;99.90
3281;DHT22;1652;51.318;6.202;2022-11-20T16:18:50;5.70;99.90
3281;DHT22;1652;51.318;6.202;2022-11-20T16:21:17;5.70;99.90
3281;DHT22;1652;51.318;6.202;2022-11-20T16:23:45;5.70;99.90
3281;DHT22;1652;51.318;6.202;2022-11-20T16:26:15;5.70;99.90
3281;DHT22;1652;51.318;6.202;2022-11-20T16:28:43;5.70;99.90
3281;DHT22;1652;51.318;6.202;2022-11-20T16:31:16;5.70;99.90
3281;DHT22;1652;51.318;6.202;2022-11-20T16:33:43;5.80;99.90
3281;DHT22;1652;51.318;6.202;2022-11-20T16:36:11;5.70;99.90
3281;DHT22;1652;51.318;6.202;2022-11-20T16:38:39;5.80;99.90
3281;DHT22;1652;51.318;6.202;2022-11-20T16:41:07;5.80;99.90
3281;DHT22;1652;51.318;6.202;2022-11-20T16:43:46;5.80;99.90
3281;DHT22;1652;51.318;6.202;2022-11-20T16:46:15;5.80;99.90
3281;DHT22;1652;51.318;6.202;2022-11-20T16:48:42;5.80;99.90
3281;DHT22;1652;51.318;6.202;2022-11-20T16:51:10;5.90;99.90
3281;DHT22;1652;51.318;6.202;2022-11-20T16:53:38;5.90;99.90
3281;DHT22;1652;51.318;6.202;2022-11-20T16:56:16;5.90;99.90
3281;DHT22;1652;51.318;6.202;2022-11-20T16:58:44;5.80;99.90
3281;DHT22;1652;51.318;6.202;2022-11-20T17:01:14;5.80;99.90
3281;DHT22;1652;51.318;6.202;2022-11-20T17:03:43;5.80;99.90
3281;DHT22;1652;51.318;6.202;2022-11-20T17:08:38;6.00;99.90
3281;DHT22;1652;51.318;6.202;2022-11-20T17:11:07;6.00;99.90
3281;DHT22;1652;51.318;6.202;2022-11-20T17:13:35;6.00;99.90
3281;DHT22;1652;51.318;6.202;2022-11-20T17:16:09;6.00;99.90
3281;DHT22;1652;51.318;6.202;2022-11-20T17:18:36;6.00;99.90
3281;DHT22;1652;51.318;6.202;2022-11-20T17:21:04;6.10;99.90
3281;DHT22;1652;51.318;6.202;2022-11-20T17:23:33;6.10;99.90
3281;DHT22;1652;51.318;6.202;2022-11-20T17:26:02;6.10;99.90
3281;DHT22;1652;51.318;6.202;2022-11-20T17:28:30;6.10;99.90
3281;DHT22;1652;51.318;6.202;2022-11-20T17:31:01;6.10;99.90
3281;DHT22;1652;51.318;6.202;2022-11-20T17:33:28;6.10;99.90
3281;DHT22;1652;51.318;6.202;2022-11-20T17:35:55;6.20;99.90
3281;DHT22;1652;51.318;6.202;2022-11-20T17:38:22;6.20;99.90
3281;DHT22;1652;51.318;6.202;2022-11-20T17:40:49;6.30;99.90
3281;DHT22;1652;51.318;6.202;2022-11-20T17:43:16;6.30;99.90
3281;DHT22;1652;51.318;6.202;2022-11-20T17:45:43;6.30;99.90
3281;DHT22;1652;51.318;6.202;2022-11-20T17:48:11;6.30;99.90
3281;DHT22;1652;51.318;6.202;2022-11-20T17:50:38;6.30;99.90
3281;DHT22;1652;51.318;6.202;2022-11-20T17:53:04;6.40;99.90
3281;DHT22;1652;51.318;6.202;2022-11-20T17:55:32;6.40;99.90
3281;DHT22;1652;51.318;6.202;2022-11-20T17:58:21;6.50;99.90
3281;DHT22;1652;51.318;6.202;2022-11-20T18:00:48;6.50;99.90
3281;DHT22;1652;51.318;6.202;2022-11-20T18:03:14;6.50;99.90
3281;DHT22;1652;51.318;6.202;2022-11-20T18:05:41;6.50;99.90
3281;DHT22;1652;51.318;6.202;2022-11-20T18:08:08;6.70;99.90
3281;DHT22;1652;51.318;6.202;2022-11-20T18:10:35;6.70;99.90
3281;DHT22;1652;51.318;6.202;2022-11-20T18:13:02;6.80;99.90
3281;DHT22;1652;51.318;6.202;2022-11-20T18:15:29;6.90;99.90
3281;DHT22;1652;51.318;6.202;2022-11-20T18:17:55;7.00;99.90
3281;DHT22;1652;51.318;6.202;2022-11-20T18:20:22;7.10;99.90
3281;DHT22;1652;51.318;6.202;2022-11-20T18:23:03;7.10;99.90
3281;DHT22;1652;51.318;6.202;2022-11-20T18:25:30;7.20;99.90
3281;DHT22;1652;51.318;6.202;2022-11-20T18:27:57;7.30;99.90
3281;DHT22;1652;51.318;6.202;2022-11-20T18:30:23;7.30;99.90
3281;DHT22;1652;51.318;6.202;2022-11-20T18:32:50;7.40;99.90